createdAt,value
2018-12-14T00:02:19.733Z,101423.30
2018-12-14T00:04:48.133Z,101426.39
2018-12-14T00:07:16.516Z,101417.08
2018-12-14T00:09:44.972Z,101420.73
2018-12-14T00:12:13.307Z,101418.44
2018-12-14T00:14:41.623Z,101417.84
2018-12-14T00:17:09.978Z,101417.31
2018-12-14T00:19:38.393Z,101417.61
2018-12-14T00:22:06.739Z,101417.15
2018-12-14T00:24:35.091Z,101412.72
2018-12-14T00:27:03.625Z,101409.59
2018-12-14T00:29:31.958Z,101417.28
2018-12-14T00:32:00.273Z,101420.13
2018-12-14T00:34:28.604Z,101410.48
2018-12-14T00:36:56.923Z,101409.20
2018-12-14T00:39:25.284Z,101408.52
2018-12-14T00:41:53.607Z,101409.81
2018-12-14T00:44:22.014Z,101412.26
2018-12-14T00:46:50.346Z,101409.81
2018-12-14T00:49:18.706Z,101409.62
2018-12-14T00:51:47.048Z,101414.47
2018-12-14T00:54:15.364Z,101419.48
2018-12-14T00:56:43.742Z,101420.25
2018-12-14T00:59:12.065Z,101418.27
2018-12-14T01:01:40.488Z,101415.35
2018-12-14T01:04:08.811Z,101411.51
2018-12-14T01:06:37.113Z,101413.75
2018-12-14T01:09:06.055Z,101413.75
2018-12-14T01:11:34.387Z,101411.86
2018-12-14T01:14:02.715Z,101415.12
2018-12-14T01:16:31.141Z,101411.81
2018-12-14T01:18:59.468Z,101418.64
2018-12-14T01:21:27.811Z,101414.98
2018-12-14T01:23:56.136Z,101421.19
2018-12-14T01:26:24.480Z,101434.48
2018-12-14T01:28:52.782Z,101428.69
2018-12-14T01:31:21.102Z,101426.33
2018-12-14T01:33:49.414Z,101427.94
2018-12-14T01:36:17.747Z,101430.23
2018-12-14T01:38:46.044Z,101435.20
2018-12-14T01:41:14.353Z,101432.45
2018-12-14T01:43:42.672Z,101440.77
2018-12-14T01:46:11.008Z,101434.24
2018-12-14T01:48:39.457Z,101438.21
2018-12-14T01:51:07.797Z,101440.56
2018-12-14T01:53:36.143Z,101444.91
2018-12-14T01:56:04.460Z,101443.63
2018-12-14T01:58:32.804Z,101440.30
2018-12-14T02:01:01.130Z,101449.55
2018-12-14T02:03:29.466Z,101442.45
2018-12-14T02:05:57.780Z,101443.42
2018-12-14T02:08:26.086Z,101450.13
2018-12-14T02:10:54.498Z,101444.39
2018-12-14T02:13:22.847Z,101440.04
2018-12-14T02:15:51.222Z,101446.57
2018-12-14T02:18:19.553Z,101435.52
2018-12-14T02:20:47.858Z,101434.64
2018-12-14T02:23:16.202Z,101433.28
2018-12-14T02:25:44.508Z,101433.97
2018-12-14T02:28:13.684Z,101425.59
2018-12-14T02:30:43.986Z,101433.28
2018-12-14T02:33:12.397Z,101436.12
2018-12-14T02:35:40.735Z,101427.63
2018-12-14T02:38:09.116Z,101428.41
2018-12-14T02:40:37.631Z,101416.88
2018-12-14T02:43:06.142Z,101422.48
2018-12-14T02:45:34.497Z,101420.55
2018-12-14T02:48:02.845Z,101416.02
2018-12-14T02:50:31.185Z,101419.66
2018-12-14T02:52:59.487Z,101417.07
2018-12-14T02:55:27.844Z,101422.30
2018-12-14T02:57:56.151Z,101416.22
2018-12-14T03:00:24.507Z,101410.34
2018-12-14T03:02:52.982Z,101408.34
2018-12-14T03:05:21.374Z,101415.77
2018-12-14T03:07:49.707Z,101408.88
2018-12-14T03:10:18.083Z,101415.92
2018-12-14T03:12:46.402Z,101411.87
2018-12-14T03:15:14.735Z,101414.16
2018-12-14T03:17:43.231Z,101413.66
2018-12-14T03:20:11.591Z,101418.17
2018-12-14T03:22:40.018Z,101417.98
2018-12-14T03:25:08.460Z,101420.49
2018-12-14T03:27:36.819Z,101419.83
2018-12-14T03:30:07.174Z,101419.48
2018-12-14T03:32:35.678Z,101417.61
2018-12-14T03:35:05.217Z,101419.55
2018-12-14T03:37:33.620Z,101414.22
2018-12-14T03:40:02.107Z,101418.17
2018-12-14T03:42:34.209Z,101421.41
2018-12-14T03:45:00.717Z,101419.27
2018-12-14T03:47:29.060Z,101411.77
2018-12-14T03:49:57.379Z,101411.27
2018-12-14T03:52:25.849Z,101414.80
2018-12-14T03:54:54.280Z,101406.23
2018-12-14T03:57:22.634Z,101405.80
2018-12-14T03:59:50.944Z,101403.01
2018-12-14T04:02:19.573Z,101404.36
2018-12-14T04:04:47.889Z,101410.56
2018-12-14T04:07:16.196Z,101407.73
2018-12-14T04:09:44.545Z,101414.99
2018-12-14T04:12:12.995Z,101416.51
2018-12-14T04:14:41.322Z,101415.06
2018-12-14T04:17:09.767Z,101416.48
2018-12-14T04:19:38.422Z,101428.23
2018-12-14T04:22:06.741Z,101422.87
2018-12-14T04:24:35.055Z,101426.31
2018-12-14T04:27:03.442Z,101428.77
2018-12-14T04:29:31.755Z,101423.64
2018-12-14T04:32:00.368Z,101418.52
2018-12-14T04:34:28.688Z,101421.61
2018-12-14T04:36:57.042Z,101426.58
2018-12-14T04:39:25.383Z,101424.63
2018-12-14T04:41:53.699Z,101425.30
2018-12-14T04:44:22.011Z,101422.53
2018-12-14T04:46:50.374Z,101427.86
2018-12-14T04:49:19.175Z,101431.84
2018-12-14T04:51:47.506Z,101428.88
2018-12-14T04:54:15.828Z,101426.07
2018-12-14T04:56:44.170Z,101426.41
2018-12-14T04:59:12.487Z,101427.19
2018-12-14T05:01:41.055Z,101428.52
2018-12-14T05:04:09.407Z,101429.97
2018-12-14T05:06:37.896Z,101432.80
2018-12-14T05:09:06.418Z,101431.52
2018-12-14T05:11:34.783Z,101433.60
2018-12-14T05:14:03.118Z,101433.86
2018-12-14T05:16:31.436Z,101436.64
2018-12-14T05:18:59.771Z,101435.04
2018-12-14T05:21:28.107Z,101442.63
2018-12-14T05:23:56.419Z,101449.27
2018-12-14T05:26:24.764Z,101448.39
2018-12-14T05:28:53.161Z,101447.27
2018-12-14T05:31:21.457Z,101439.47
2018-12-14T05:33:49.794Z,101444.38
2018-12-14T05:36:18.111Z,101443.58
2018-12-14T05:38:46.447Z,101447.70
2018-12-14T05:41:14.759Z,101446.84
2018-12-14T05:43:43.090Z,101448.29
2018-12-14T05:46:11.618Z,101447.27
2018-12-14T05:48:39.973Z,101445.33
2018-12-14T05:51:08.396Z,101439.69
2018-12-14T05:53:36.734Z,101440.59
2018-12-14T05:56:05.158Z,101439.42
2018-12-14T05:58:33.562Z,101445.38
2018-12-14T06:01:01.973Z,101442.66
2018-12-14T06:03:30.343Z,101438.30
2018-12-14T06:05:58.814Z,101442.05
2018-12-14T06:08:27.121Z,101442.58
2018-12-14T06:10:55.508Z,101450.48
2018-12-14T06:13:23.824Z,101445.61
2018-12-14T06:15:52.182Z,101446.23
2018-12-14T06:18:20.509Z,101453.78
2018-12-14T06:20:48.889Z,101461.38
2018-12-14T06:23:17.268Z,101464.04
2018-12-14T06:25:45.699Z,101459.83
2018-12-14T06:28:14.033Z,101465.11
2018-12-14T06:30:42.372Z,101466.88
2018-12-14T06:33:10.700Z,101466.36
2018-12-14T06:35:39.089Z,101475.28
2018-12-14T06:38:07.411Z,101466.26
2018-12-14T06:40:35.743Z,101474.35
2018-12-14T06:43:04.050Z,101478.99
2018-12-14T06:45:32.389Z,101477.47
2018-12-14T06:48:00.731Z,101481.30
2018-12-14T06:50:30.762Z,101483.32
2018-12-14T06:53:00.639Z,101482.17
2018-12-14T06:55:29.043Z,101486.77
2018-12-14T06:57:57.401Z,101496.80
2018-12-14T07:00:25.724Z,101492.83
2018-12-14T07:02:54.114Z,101492.94
2018-12-14T07:05:22.427Z,101494.53
2018-12-14T07:07:50.730Z,101493.67
2018-12-14T07:10:19.050Z,101499.83
2018-12-14T07:12:47.436Z,101497.63
2018-12-14T07:15:15.748Z,101502.75
2018-12-14T07:17:44.055Z,101507.54
2018-12-14T07:20:12.397Z,101509.03
2018-12-14T07:22:40.704Z,101502.07
2018-12-14T07:25:09.039Z,101506.62
2018-12-14T07:27:37.363Z,101508.33
2018-12-14T07:30:05.981Z,101514.16
2018-12-14T07:32:34.327Z,101518.02
2018-12-14T07:35:02.654Z,101520.78
2018-12-14T07:37:31.009Z,101519.97
2018-12-14T07:39:59.320Z,101532.51
2018-12-14T07:42:27.812Z,101529.60
2018-12-14T07:44:56.197Z,101533.48
2018-12-14T07:47:24.708Z,101535.38
2018-12-14T07:49:53.012Z,101538.92
2018-12-14T07:52:21.353Z,101541.72
2018-12-14T07:54:49.688Z,101548.35
2018-12-14T07:57:18.021Z,101557.84
2018-12-14T07:59:46.392Z,101548.54
2018-12-14T08:02:14.709Z,101554.76
2018-12-14T08:04:43.443Z,101563.73
2018-12-14T08:07:12.115Z,101565.70
2018-12-14T08:09:40.522Z,101561.38
2018-12-14T08:12:08.847Z,101560.96
2018-12-14T08:14:37.163Z,101568.05
2018-12-14T08:17:05.528Z,101565.69
2018-12-14T08:19:33.870Z,101571.70
2018-12-14T08:22:02.229Z,101566.48
2018-12-14T08:24:30.549Z,101570.97
2018-12-14T08:26:58.877Z,101571.95
2018-12-14T08:29:27.199Z,101574.92
2018-12-14T08:31:55.499Z,101579.23
2018-12-14T08:34:23.825Z,101572.13
2018-12-14T08:36:52.143Z,101572.77
2018-12-14T08:39:20.463Z,101578.95
2018-12-14T08:41:48.799Z,101581.33
2018-12-14T08:44:17.256Z,101588.14
2018-12-14T08:46:45.629Z,101586.88
2018-12-14T08:49:14.049Z,101598.23
2018-12-14T08:51:42.391Z,101604.80
2018-12-14T08:54:11.495Z,101604.98
2018-12-14T08:56:39.835Z,101601.62
2018-12-14T08:59:08.189Z,101605.34
2018-12-14T09:01:36.532Z,101604.38
2018-12-14T09:04:04.974Z,101609.98
2018-12-14T09:06:33.289Z,101616.67
2018-12-14T09:09:01.743Z,101615.04
2018-12-14T09:11:30.182Z,101625.09
2018-12-14T09:13:58.577Z,101622.19
2018-12-14T09:16:27.020Z,101626.91
2018-12-14T09:18:55.374Z,101629.38
2018-12-14T09:21:23.847Z,101628.16
2018-12-14T09:23:52.172Z,101635.72
2018-12-14T09:26:20.480Z,101637.66
2018-12-14T09:28:49.092Z,101637.72
2018-12-14T09:31:18.609Z,101636.42
2018-12-14T09:33:46.939Z,101644.60
2018-12-14T09:36:15.666Z,101639.09
2018-12-14T09:38:44.026Z,101645.36
2018-12-14T09:41:16.216Z,101642.09
2018-12-14T09:43:42.701Z,101643.30
2018-12-14T09:46:11.104Z,101637.56
2018-12-14T09:48:39.432Z,101641.47
2018-12-14T09:51:12.360Z,101644.44
2018-12-14T09:53:38.105Z,101641.73
2018-12-14T09:56:06.420Z,101644.94
2018-12-14T09:58:34.732Z,101638.44
2018-12-14T10:01:03.131Z,101638.05
2018-12-14T10:03:31.763Z,101635.97
2018-12-14T10:06:00.098Z,101641.52
2018-12-14T10:08:28.634Z,101640.37
2018-12-14T10:10:58.240Z,101633.33
2018-12-14T10:13:26.581Z,101637.14
2018-12-14T10:15:55.444Z,101630.22
2018-12-14T10:18:23.828Z,101632.95
2018-12-14T10:20:52.151Z,101638.09
2018-12-14T10:23:20.499Z,101633.34
2018-12-14T10:25:48.895Z,101632.30
2018-12-14T10:28:17.239Z,101624.98
2018-12-14T10:30:45.575Z,101628.69
2018-12-14T10:33:13.895Z,101619.47
2018-12-14T10:35:42.262Z,101619.13
2018-12-14T10:38:10.682Z,101621.88
2018-12-14T10:40:39.029Z,101614.32
2018-12-14T10:43:07.486Z,101617.57
2018-12-14T10:45:36.129Z,101614.83
2018-12-14T10:48:04.541Z,101610.31
2018-12-14T10:50:39.311Z,101616.22
2018-12-14T10:53:05.198Z,101604.06
2018-12-14T10:55:33.572Z,101608.56
2018-12-14T10:58:01.978Z,101606.80
2018-12-14T11:00:35.703Z,101607.56
2018-12-14T11:03:04.143Z,101604.00
2018-12-14T11:05:32.515Z,101602.28
2018-12-14T11:08:00.859Z,101597.70
2018-12-14T11:10:29.291Z,101601.06
2018-12-14T11:12:57.591Z,101599.72
2018-12-14T11:15:25.911Z,101592.27
2018-12-14T11:17:54.290Z,101594.22
2018-12-14T11:20:22.667Z,101596.23
2018-12-14T11:22:50.995Z,101590.51
2018-12-14T11:25:19.352Z,101596.92
2018-12-14T11:27:47.810Z,101591.41
2018-12-14T11:30:16.136Z,101593.55
2018-12-14T11:32:44.450Z,101595.05
2018-12-14T11:35:12.732Z,101591.32
2018-12-14T11:37:41.078Z,101592.44
2018-12-14T11:40:09.643Z,101596.67
2018-12-14T11:42:38.013Z,101596.96
2018-12-14T11:45:06.932Z,101600.55
2018-12-14T11:47:35.458Z,101600.63
2018-12-14T11:50:05.402Z,101595.13
2018-12-14T11:52:33.764Z,101595.41
2018-12-14T11:55:02.096Z,101594.80
2018-12-14T11:57:30.420Z,101598.98
2018-12-14T11:59:58.753Z,101589.59
2018-12-14T12:02:27.107Z,101587.39
2018-12-14T12:04:55.452Z,101580.81
2018-12-14T12:07:23.792Z,101582.56
2018-12-14T12:09:52.115Z,101581.22
2018-12-14T12:12:20.577Z,101584.37
2018-12-14T12:14:49.004Z,101581.39
2018-12-14T12:17:17.379Z,101587.75
2018-12-14T12:19:45.700Z,101579.69
2018-12-14T12:22:14.062Z,101583.94
2018-12-14T12:24:42.391Z,101588.90
2018-12-14T12:27:10.742Z,101581.89
2018-12-14T12:29:39.047Z,101583.23
2018-12-14T12:32:07.367Z,101581.09
2018-12-14T12:34:35.713Z,101589.30
2018-12-14T12:37:04.045Z,101591.33
2018-12-14T12:39:32.404Z,101583.75
2018-12-14T12:42:00.733Z,101580.71
2018-12-14T12:44:33.499Z,101580.27
2018-12-14T12:46:59.423Z,101578.55
2018-12-14T12:49:27.816Z,101579.69
2018-12-14T12:51:56.209Z,101586.33
2018-12-14T12:54:24.539Z,101589.30
2018-12-14T12:56:52.863Z,101588.75
2018-12-14T12:59:21.997Z,101588.67
2018-12-14T13:01:50.359Z,101587.24
2018-12-14T13:04:18.664Z,101587.84
2018-12-14T13:06:47.004Z,101590.14
2018-12-14T13:09:15.424Z,101589.16
2018-12-14T13:11:44.242Z,101590.03
2018-12-14T13:14:12.584Z,101591.65
2018-12-14T13:16:40.908Z,101591.54
2018-12-14T13:19:09.271Z,101596.48
2018-12-14T13:21:37.947Z,101593.16
2018-12-14T13:24:06.267Z,101584.86
2018-12-14T13:26:34.608Z,101589.89
2018-12-14T13:29:02.972Z,101592.27
2018-12-14T13:31:31.271Z,101596.31
2018-12-14T13:33:59.735Z,101595.89
2018-12-14T13:36:28.082Z,101597.81
2018-12-14T13:38:56.538Z,101605.49
2018-12-14T13:41:24.893Z,101611.61
2018-12-14T13:43:53.406Z,101613.86
2018-12-14T13:46:21.750Z,101615.57
2018-12-14T13:48:50.047Z,101622.47
2018-12-14T13:51:19.385Z,101628.02
2018-12-14T13:53:48.109Z,101632.11
2018-12-14T13:56:16.456Z,101628.23
2018-12-14T13:58:44.805Z,101626.37
2018-12-14T14:01:13.146Z,101634.42
2018-12-14T14:03:41.585Z,101639.30
2018-12-14T14:06:09.952Z,101643.48
2018-12-14T14:08:38.395Z,101651.34
2018-12-14T14:11:06.721Z,101642.14
2018-12-14T14:13:35.092Z,101648.30
2018-12-14T14:16:03.464Z,101651.84
2018-12-14T14:18:31.812Z,101648.82
2018-12-14T14:21:00.145Z,101650.86
2018-12-14T14:23:28.461Z,101656.16
2018-12-14T14:25:56.778Z,101657.59
2018-12-14T14:28:25.119Z,101661.84
2018-12-14T14:30:55.462Z,101665.77
2018-12-14T14:33:24.670Z,101668.69
2018-12-14T14:35:54.001Z,101672.07
2018-12-14T14:38:22.366Z,101669.23
2018-12-14T14:40:50.688Z,101671.47
2018-12-14T14:43:19.130Z,101670.34
2018-12-14T14:45:47.434Z,101674.34
2018-12-14T14:48:15.944Z,101676.52
2018-12-14T14:50:44.465Z,101672.21
2018-12-14T14:53:12.810Z,101679.51
2018-12-14T14:55:41.168Z,101681.98
2018-12-14T14:58:09.569Z,101682.94
2018-12-14T15:00:37.894Z,101685.03
2018-12-14T15:03:06.296Z,101681.59
2018-12-14T15:05:34.658Z,101686.45
2018-12-14T15:08:02.964Z,101687.81
2018-12-14T15:10:31.296Z,101693.81
2018-12-14T15:12:59.654Z,101699.54
2018-12-14T15:15:28.012Z,101693.06
2018-12-14T15:17:56.354Z,101695.63
2018-12-14T15:20:24.684Z,101697.52
2018-12-14T15:22:53.060Z,101699.16
2018-12-14T15:25:21.453Z,101704.41
2018-12-14T15:27:50.527Z,101707.58
2018-12-14T15:30:18.879Z,101706.49
2018-12-14T15:32:48.863Z,101711.91
2018-12-14T15:35:17.194Z,101715.84
2018-12-14T15:37:45.538Z,101717.92
2018-12-14T15:40:14.072Z,101721.69
2018-12-14T15:42:42.409Z,101719.80
2018-12-14T15:45:13.206Z,101725.81
2018-12-14T15:47:41.227Z,101725.13
2018-12-14T15:50:09.685Z,101727.78
2018-12-14T15:52:38.021Z,101721.37
2018-12-14T15:55:06.955Z,101725.81
2018-12-14T15:57:35.638Z,101724.85
2018-12-14T16:00:05.986Z,101727.98
2018-12-14T16:02:34.870Z,101730.95
2018-12-14T16:05:03.346Z,101729.09
2018-12-14T16:07:31.727Z,101727.89
2018-12-14T16:10:00.099Z,101737.08
2018-12-14T16:12:28.478Z,101734.11
2018-12-14T16:14:56.806Z,101728.86
2018-12-14T16:17:25.237Z,101730.26
2018-12-14T16:19:53.671Z,101733.91
2018-12-14T16:22:22.139Z,101734.79
2018-12-14T16:24:50.503Z,101732.71
2018-12-14T16:27:18.871Z,101724.85
2018-12-14T16:29:47.223Z,101729.47
2018-12-14T16:32:15.590Z,101729.66
2018-12-14T16:34:43.895Z,101729.66
2018-12-14T16:37:12.243Z,101735.75
2018-12-14T16:39:40.586Z,101741.13
2018-12-14T16:42:08.957Z,101741.13
2018-12-14T16:44:37.333Z,101744.56
2018-12-14T16:47:05.674Z,101738.64
2018-12-14T16:49:34.126Z,101737.88
2018-12-14T16:52:02.436Z,101738.76
2018-12-14T16:54:30.759Z,101745.17
2018-12-14T16:56:59.107Z,101752.86
2018-12-14T16:59:27.444Z,101753.62
2018-12-14T17:01:55.816Z,101757.47
2018-12-14T17:04:24.267Z,101764.88
2018-12-14T17:06:52.598Z,101763.71
2018-12-14T17:09:20.997Z,101764.48
2018-12-14T17:11:49.331Z,101766.69
2018-12-14T17:14:17.655Z,101767.85
2018-12-14T17:16:46.108Z,101767.73
2018-12-14T17:19:14.451Z,101769.41
2018-12-14T17:21:42.915Z,101775.94
2018-12-14T17:24:11.280Z,101773.95
2018-12-14T17:26:40.672Z,101769.82
2018-12-14T17:29:09.005Z,101774.83
2018-12-14T17:31:37.528Z,101782.84
2018-12-14T17:34:05.946Z,101778.31
2018-12-14T17:36:34.268Z,101787.29
2018-12-14T17:39:02.800Z,101782.56
2018-12-14T17:41:31.230Z,101782.05
2018-12-14T17:43:59.557Z,101790.25
2018-12-14T17:46:27.902Z,101794.58
2018-12-14T17:48:56.279Z,101795.66
2018-12-14T17:51:24.653Z,101803.84
2018-12-14T17:53:52.992Z,101801.09
2018-12-14T17:56:21.357Z,101804.73
2018-12-14T17:58:49.700Z,101809.35
2018-12-14T18:01:18.087Z,101815.20
2018-12-14T18:03:46.469Z,101808.30
2018-12-14T18:06:14.786Z,101810.25
2018-12-14T18:08:43.122Z,101811.64
2018-12-14T18:11:12.365Z,101814.50
2018-12-14T18:13:40.780Z,101813.41
2018-12-14T18:16:09.208Z,101817.73
2018-12-14T18:18:37.586Z,101815.50
2018-12-14T18:21:05.991Z,101815.38
2018-12-14T18:23:34.341Z,101822.98
2018-12-14T18:26:02.703Z,101826.24
2018-12-14T18:28:31.038Z,101834.23
2018-12-14T18:30:59.390Z,101832.06
2018-12-14T18:33:27.734Z,101830.27
2018-12-14T18:35:56.063Z,101836.19
2018-12-14T18:38:24.409Z,101840.23
2018-12-14T18:40:52.852Z,101839.23
2018-12-14T18:43:21.191Z,101841.13
2018-12-14T18:45:53.178Z,101842.70
2018-12-14T18:48:19.910Z,101844.39
2018-12-14T18:50:48.252Z,101850.30
2018-12-14T18:53:16.589Z,101855.64
2018-12-14T18:55:45.029Z,101856.94
2018-12-14T18:58:13.389Z,101854.06
2018-12-14T19:00:41.841Z,101855.34
2018-12-14T19:03:10.183Z,101855.23
2018-12-14T19:05:38.504Z,101857.70
2018-12-14T19:08:06.870Z,101863.22
2018-12-14T19:10:35.195Z,101861.94
2018-12-14T19:13:03.554Z,101871.30
2018-12-14T19:15:31.857Z,101874.23
2018-12-14T19:18:00.224Z,101879.80
2018-12-14T19:20:28.628Z,101875.13
2018-12-14T19:22:56.976Z,101877.04
2018-12-14T19:25:25.337Z,101885.13
2018-12-14T19:27:53.681Z,101888.33
2018-12-14T19:30:22.018Z,101885.79
2018-12-14T19:32:50.442Z,101892.48
2018-12-14T19:35:18.956Z,101892.70
2018-12-14T19:37:47.335Z,101894.74
2018-12-14T19:40:15.714Z,101896.02
2018-12-14T19:42:44.163Z,101897.61
2018-12-14T19:45:12.528Z,101896.03
2018-12-14T19:47:40.893Z,101897.41
2018-12-14T19:50:09.642Z,101897.89
2018-12-14T19:52:37.993Z,101896.55
2018-12-14T19:55:08.878Z,101886.66
2018-12-14T19:57:37.420Z,101883.49
2018-12-14T20:00:11.588Z,101889.50
2018-12-14T20:02:40.084Z,101884.69
2018-12-14T20:05:09.282Z,101894.12
2018-12-14T20:07:37.685Z,101893.02
2018-12-14T20:10:07.459Z,101894.52
2018-12-14T20:12:35.794Z,101891.67
2018-12-14T20:15:06.379Z,101883.61
2018-12-14T20:17:34.691Z,101895.22
2018-12-14T20:20:03.141Z,101890.02
2018-12-14T20:22:31.540Z,101899.03
2018-12-14T20:24:59.912Z,101893.45
2018-12-14T20:27:28.216Z,101890.64
2018-12-14T20:29:56.614Z,101894.09
2018-12-14T20:32:24.956Z,101889.33
2018-12-14T20:34:54.155Z,101886.91
2018-12-14T20:37:22.552Z,101889.45
2018-12-14T20:39:50.935Z,101883.45
2018-12-14T20:42:19.315Z,101886.52
2018-12-14T20:44:47.656Z,101880.73
2018-12-14T20:47:15.940Z,101870.14
2018-12-14T20:49:44.449Z,101873.98
2018-12-14T20:52:12.756Z,101878.81
2018-12-14T20:54:41.095Z,101884.52
2018-12-14T20:57:09.450Z,101881.09
2018-12-14T20:59:37.788Z,101883.20
2018-12-14T21:02:06.328Z,101881.25
2018-12-14T21:04:34.702Z,101875.42
2018-12-14T21:07:03.050Z,101873.93
2018-12-14T21:09:31.411Z,101876.98
2018-12-14T21:11:59.799Z,101877.89
2018-12-14T21:14:28.427Z,101876.52
2018-12-14T21:16:56.861Z,101872.28
2018-12-14T21:19:25.237Z,101877.59
2018-12-14T21:21:53.677Z,101873.26
2018-12-14T21:24:22.039Z,101869.30
2018-12-14T21:26:50.454Z,101869.69
2018-12-14T21:29:18.779Z,101860.94
2018-12-14T21:31:47.193Z,101862.49
2018-12-14T21:34:16.969Z,101862.67
2018-12-14T21:36:45.581Z,101861.91
2018-12-14T21:39:13.951Z,101869.59
2018-12-14T21:41:42.337Z,101868.92
2018-12-14T21:44:10.655Z,101860.42
2018-12-14T21:46:39.042Z,101860.42
2018-12-14T21:49:07.358Z,101867.92
2018-12-14T21:51:35.826Z,101867.55
2018-12-14T21:54:04.199Z,101867.22
2018-12-14T21:56:32.584Z,101864.53
2018-12-14T21:59:00.983Z,101863.95
2018-12-14T22:01:29.313Z,101856.00
2018-12-14T22:03:57.654Z,101858.62
2018-12-14T22:06:26.005Z,101856.58
2018-12-14T22:08:54.333Z,101854.41
2018-12-14T22:11:22.675Z,101856.27
2018-12-14T22:13:51.048Z,101851.14
2018-12-14T22:16:19.369Z,101848.50
2018-12-14T22:18:47.712Z,101849.31
2018-12-14T22:21:16.033Z,101848.95
2018-12-14T22:23:44.431Z,101846.81
2018-12-14T22:26:12.733Z,101855.30
2018-12-14T22:28:41.092Z,101857.16
2018-12-14T22:31:09.456Z,101854.78
2018-12-14T22:33:37.793Z,101850.81
2018-12-14T22:36:06.158Z,101857.92
2018-12-14T22:38:34.706Z,101855.48
2018-12-14T22:43:30.481Z,101860.60
2018-12-14T22:45:58.859Z,101858.53
2018-12-14T22:48:27.382Z,101859.41
2018-12-14T22:50:55.760Z,101852.61
2018-12-14T22:53:24.121Z,101850.87
2018-12-14T22:55:52.483Z,101854.78
2018-12-14T22:58:20.826Z,101861.67
2018-12-14T23:00:53.491Z,101856.36
2018-12-14T23:03:22.321Z,101862.06
2018-12-14T23:05:50.738Z,101859.77
2018-12-14T23:08:19.088Z,101866.12
2018-12-14T23:10:47.413Z,101870.76
2018-12-14T23:13:15.730Z,101872.83
2018-12-14T23:15:44.054Z,101872.22
2018-12-14T23:18:12.428Z,101873.81
2018-12-14T23:20:40.779Z,101876.19
2018-12-14T23:23:09.201Z,101875.18
2018-12-14T23:25:37.529Z,101880.09
2018-12-14T23:28:05.885Z,101877.44
2018-12-14T23:30:34.243Z,101877.52
2018-12-14T23:33:02.658Z,101880.03
2018-12-14T23:35:31.456Z,101879.51
2018-12-14T23:37:59.784Z,101875.84
2018-12-14T23:40:28.090Z,101876.46
2018-12-14T23:42:56.723Z,101876.16
2018-12-14T23:45:25.172Z,101883.14
2018-12-14T23:47:53.639Z,101885.57
2018-12-14T23:50:22.077Z,101886.22
2018-12-14T23:52:50.385Z,101886.98
2018-12-14T23:55:18.713Z,101883.27
2018-12-14T23:57:47.043Z,101891.13
